Time;durP1;ratioP1;P1;durP2;ratioP2;P2;SDS_P1;SDS_P2;PMS_P1;PMS_P2;Temp;Humidity;BMP_temperature;BMP_pressure;BME280_temperature;BME280_humidity;BME280_pressure;Samples;Min_cycle;Max_cycle;Signal;HPM_P1;HPM_P2
2024/01/27 00:01:24;;;;;;;13.82;4.03;;;3.00;99.90;;;;;;5033564;28;20459;-61
2024/01/27 00:03:51;;;;;;;12.05;3.92;;;3.00;99.90;;;;;;5033280;28;20049;-60
2024/01/27 00:06:17;;;;;;;15.95;3.65;;;3.00;99.90;;;;;;5033359;28;20041;-60
2024/01/27 00:08:44;;;;;;;12.50;3.60;;;2.90;99.90;;;;;;5033073;28;20041;-60
2024/01/27 00:11:11;;;;;;;10.77;3.75;;;2.90;99.90;;;;;;5031835;28;20042;-60
2024/01/27 00:13:38;;;;;;;12.98;4.00;;;2.90;99.90;;;;;;5032531;28;20085;-60
2024/01/27 00:16:05;;;;;;;14.30;3.85;;;2.80;99.90;;;;;;5033284;28;20049;-61
2024/01/27 00:18:32;;;;;;;12.40;3.63;;;2.80;99.90;;;;;;5032951;28;20045;-60
2024/01/27 00:20:58;;;;;;;10.68;4.07;;;2.80;99.90;;;;;;5033270;28;20048;-61
2024/01/27 00:23:25;;;;;;;11.38;3.65;;;2.80;99.90;;;;;;5032920;28;20037;-61
2024/01/27 00:25:52;;;;;;;13.23;3.97;;;2.80;99.90;;;;;;5032902;28;20445;-60
2024/01/27 00:28:19;;;;;;;13.55;3.35;;;2.80;99.90;;;;;;5033074;28;20406;-60
2024/01/27 00:30:46;;;;;;;13.05;3.35;;;2.70;99.90;;;;;;5032911;28;20076;-60
2024/01/27 00:33:12;;;;;;;14.27;3.85;;;2.70;99.90;;;;;;5031902;28;20115;-60
2024/01/27 00:35:39;;;;;;;15.45;4.00;;;2.70;99.90;;;;;;5032604;28;20037;-61
2024/01/27 00:38:06;;;;;;;16.08;3.95;;;2.70;99.90;;;;;;5033019;28;20042;-60
2024/01/27 00:40:33;;;;;;;13.60;3.85;;;2.60;99.90;;;;;;5032988;28;20079;-61
2024/01/27 00:43:00;;;;;;;8.85;3.78;;;2.60;99.90;;;;;;5036490;28;20376;-61
2024/01/27 00:45:28;;;;;;;12.73;3.80;;;2.60;99.90;;;;;;5036351;28;20045;-60
2024/01/27 00:47:55;;;;;;;9.82;3.28;;;2.50;99.90;;;;;;5036495;28;20063;-61
2024/01/27 00:50:22;;;;;;;12.30;3.75;;;2.50;99.90;;;;;;5035355;28;20045;-61
2024/01/27 00:52:49;;;;;;;15.70;3.50;;;2.40;99.90;;;;;;5036371;28;20040;-61
2024/01/27 00:55:17;;;;;;;16.45;3.63;;;2.40;99.90;;;;;;5036230;28;20046;-60
2024/01/27 00:57:44;;;;;;;19.17;3.95;;;2.40;99.90;;;;;;5036574;28;20049;-60
2024/01/27 01:00:10;;;;;;;15.20;4.40;;;2.40;99.90;;;;;;5036445;28;20425;-60
2024/01/27 01:02:37;;;;;;;16.95;4.43;;;2.40;99.90;;;;;;5035046;28;20050;-65
2024/01/27 01:05:04;;;;;;;13.98;3.60;;;2.30;99.90;;;;;;5036332;28;20046;-64
2024/01/27 01:07:31;;;;;;;14.52;3.30;;;2.30;99.90;;;;;;5035929;28;20073;-64
2024/01/27 01:09:58;;;;;;;9.43;3.63;;;2.30;99.90;;;;;;5036012;28;20041;-64
2024/01/27 01:12:28;;;;;;;14.45;4.13;;;2.30;99.90;;;;;;5035044;28;20046;-64
2024/01/27 01:14:55;;;;;;;12.07;3.33;;;2.30;99.90;;;;;;5035504;28;20387;-64
2024/01/27 01:17:21;;;;;;;11.70;3.13;;;2.30;99.90;;;;;;5036038;28;20099;-63
2024/01/27 01:19:48;;;;;;;14.50;3.45;;;2.20;99.90;;;;;;5036017;28;20034;-63
2024/01/27 01:22:16;;;;;;;11.02;4.70;;;2.20;99.90;;;;;;5035726;28;20038;-64
2024/01/27 01:24:43;;;;;;;17.52;4.13;;;2.20;99.90;;;;;;5034629;28;20055;-64
2024/01/27 01:27:10;;;;;;;11.07;3.42;;;2.20;99.90;;;;;;5035625;28;20045;-63
2024/01/27 01:29:36;;;;;;;13.02;3.45;;;2.20;99.90;;;;;;5035807;28;20037;-64
2024/01/27 01:32:03;;;;;;;15.35;4.05;;;2.20;99.90;;;;;;5035781;28;20045;-64
2024/01/27 01:34:31;;;;;;;13.43;3.22;;;2.20;99.90;;;;;;5034457;28;20382;-64
2024/01/27 01:36:58;;;;;;;12.23;3.15;;;2.20;99.90;;;;;;5035869;28;20494;-65
2024/01/27 01:39:25;;;;;;;8.68;3.47;;;2.10;99.90;;;;;;5035149;28;20044;-64
2024/01/27 01:41:52;;;;;;;13.20;3.53;;;2.10;99.90;;;;;;5035446;28;20132;-64
2024/01/27 01:44:19;;;;;;;16.85;3.65;;;2.10;99.90;;;;;;5035052;28;20045;-64
2024/01/27 01:46:45;;;;;;;9.27;3.03;;;2.10;99.90;;;;;;5035434;28;20041;-64
2024/01/27 01:49:12;;;;;;;12.77;3.65;;;2.00;99.90;;;;;;5035112;28;20140;-64
2024/01/27 01:51:39;;;;;;;13.50;3.78;;;2.00;99.90;;;;;;5035305;28;20049;-64
2024/01/27 01:54:06;;;;;;;13.20;3.67;;;2.00;99.90;;;;;;5034771;28;20045;-64
2024/01/27 01:56:33;;;;;;;13.48;3.55;;;2.00;99.90;;;;;;5035151;28;20103;-64
2024/01/27 01:58:59;;;;;;;10.30;3.58;;;2.00;99.90;;;;;;5034950;28;20482;-63
2024/01/27 02:01:28;;;;;;;11.20;3.22;;;2.00;99.90;;;;;;5034353;28;20053;-65
2024/01/27 02:03:55;;;;;;;12.50;3.15;;;1.90;99.90;;;;;;5034925;28;20164;-64
2024/01/27 02:06:21;;;;;;;12.77;5.05;;;1.90;99.90;;;;;;5035057;28;20551;-65
2024/01/27 02:08:49;;;;;;;10.15;4.00;;;1.90;99.90;;;;;;5035034;28;20120;-65
2024/01/27 02:11:16;;;;;;;9.70;3.22;;;1.90;99.90;;;;;;5033796;28;20395;-64
2024/01/27 02:13:43;;;;;;;8.40;2.92;;;1.90;99.90;;;;;;5034410;28;20054;-65
2024/01/27 02:16:09;;;;;;;10.70;3.17;;;1.90;99.90;;;;;;5034808;28;20042;-65
2024/01/27 02:18:36;;;;;;;16.73;3.40;;;1.90;99.90;;;;;;5034989;28;20049;-63
2024/01/27 02:21:03;;;;;;;8.48;3.17;;;1.90;99.90;;;;;;5033169;28;20388;-64
2024/01/27 02:23:30;;;;;;;8.88;3.08;;;1.90;99.90;;;;;;5034884;28;20046;-65
2024/01/27 02:25:57;;;;;;;12.32;3.65;;;1.90;99.90;;;;;;5034565;28;20041;-65
2024/01/27 02:28:24;;;;;;;12.10;3.28;;;1.90;99.90;;;;;;5033659;28;20033;-65
2024/01/27 02:30:50;;;;;;;11.90;3.33;;;1.80;99.90;;;;;;5034177;28;20041;-65
2024/01/27 02:33:17;;;;;;;12.70;3.47;;;1.80;99.90;;;;;;5034596;28;20040;-65
2024/01/27 02:35:44;;;;;;;15.57;3.50;;;1.80;99.90;;;;;;5034197;28;20128;-65
2024/01/27 02:38:11;;;;;;;12.95;3.63;;;1.80;99.90;;;;;;5034060;28;20075;-65
2024/01/27 02:40:38;;;;;;;11.52;3.85;;;1.80;99.90;;;;;;5034135;28;20048;-65
2024/01/27 02:43:04;;;;;;;9.38;3.30;;;1.70;99.90;;;;;;5034163;28;20449;-63
2024/01/27 02:45:31;;;;;;;14.23;3.85;;;1.70;99.90;;;;;;5034132;28;20041;-65
2024/01/27 02:47:58;;;;;;;12.48;3.40;;;1.70;99.90;;;;;;5034001;28;20045;-64
2024/01/27 02:50:25;;;;;;;14.07;3.88;;;1.70;99.90;;;;;;5034012;28;20038;-64
2024/01/27 02:52:52;;;;;;;14.70;3.20;;;1.70;99.90;;;;;;5034151;28;20052;-65
2024/01/27 02:55:18;;;;;;;13.32;4.30;;;1.70;99.90;;;;;;5034241;28;20040;-65
2024/01/27 02:57:45;;;;;;;12.70;3.70;;;1.60;99.90;;;;;;5033768;28;20486;-64
2024/01/27 03:00:12;;;;;;;16.42;3.65;;;1.60;99.90;;;;;;5033896;28;20482;-65
2024/01/27 03:02:39;;;;;;;10.68;3.67;;;1.60;99.90;;;;;;5033915;28;20038;-64
2024/01/27 03:05:06;;;;;;;9.85;3.20;;;1.60;99.90;;;;;;5033050;28;20482;-64
2024/01/27 03:07:33;;;;;;;13.57;4.20;;;1.60;99.90;;;;;;5033536;28;20045;-65
2024/01/27 03:09:59;;;;;;;13.73;4.60;;;1.60;99.90;;;;;;5034010;28;20099;-64
2024/01/27 03:12:26;;;;;;;13.32;4.05;;;1.60;99.90;;;;;;5033906;28;20078;-63
2024/01/27 03:14:54;;;;;;;9.23;4.20;;;1.60;99.90;;;;;;5033283;28;20496;-65
2024/01/27 03:17:21;;;;;;;13.18;4.32;;;1.60;99.90;;;;;;5033763;28;20352;-64
2024/01/27 03:19:48;;;;;;;15.25;3.83;;;1.50;99.90;;;;;;5033942;28;20045;-62
2024/01/27 03:22:15;;;;;;;12.13;3.78;;;1.50;99.90;;;;;;5033733;28;20502;-64
2024/01/27 03:24:42;;;;;;;9.88;3.40;;;1.40;99.90;;;;;;5033769;28;20493;-64
2024/01/27 03:27:09;;;;;;;11.23;3.92;;;1.50;99.90;;;;;;5033780;28;20048;-66
2024/01/27 03:29:36;;;;;;;10.82;3.50;;;1.40;99.90;;;;;;5033707;28;20442;-64
2024/01/27 03:32:02;;;;;;;13.70;4.20;;;1.40;99.90;;;;;;5033900;28;20052;-66
2024/01/27 03:34:29;;;;;;;11.48;3.38;;;1.40;99.90;;;;;;5033918;28;20092;-64
2024/01/27 03:36:56;;;;;;;14.32;3.80;;;1.40;99.90;;;;;;5033706;28;20037;-64
2024/01/27 03:39:23;;;;;;;12.43;3.33;;;1.40;99.90;;;;;;5032501;28;20049;-64
2024/01/27 03:41:50;;;;;;;11.93;3.15;;;1.40;99.90;;;;;;5033379;28;20048;-64
2024/01/27 03:44:16;;;;;;;11.00;3.55;;;1.30;99.90;;;;;;5033562;28;20077;-65
2024/01/27 03:46:43;;;;;;;14.05;3.08;;;1.30;99.90;;;;;;5033532;28;20115;-64
2024/01/27 03:49:10;;;;;;;11.65;3.47;;;1.30;99.90;;;;;;5033440;28;20433;-65
2024/01/27 03:51:37;;;;;;;12.25;3.17;;;1.30;99.90;;;;;;5033497;28;20037;-64
2024/01/27 03:54:04;;;;;;;11.40;3.35;;;1.30;99.90;;;;;;5033574;28;20046;-63
2024/01/27 03:56:31;;;;;;;11.32;3.05;;;1.30;99.90;;;;;;5033541;28;20462;-64
2024/01/27 03:58:58;;;;;;;13.07;3.85;;;1.30;99.90;;;;;;5033141;28;20156;-63
2024/01/27 04:01:24;;;;;;;9.75;3.20;;;1.40;99.90;;;;;;5032763;28;20050;-63
2024/01/27 04:03:51;;;;;;;17.58;3.65;;;1.40;99.90;;;;;;5033020;28;20537;-62
2024/01/27 04:06:18;;;;;;;11.82;2.88;;;1.40;99.90;;;;;;5031899;28;20037;-64
2024/01/27 04:08:45;;;;;;;13.85;3.58;;;1.40;99.90;;;;;;5033220;28;20061;-62
2024/01/27 04:11:12;;;;;;;12.45;3.25;;;1.40;99.90;;;;;;5033110;28;20049;-62
2024/01/27 04:13:38;;;;;;;13.93;3.15;;;1.40;99.90;;;;;;5032825;28;20466;-63
2024/01/27 04:16:06;;;;;;;11.80;3.42;;;1.40;99.90;;;;;;5033260;28;20041;-63
2024/01/27 04:18:33;;;;;;;11.43;3.70;;;1.40;99.90;;;;;;5036942;28;20046;-63
2024/01/27 04:21:00;;;;;;;12.80;3.83;;;1.40;99.90;;;;;;5037235;28;20037;-64
2024/01/27 04:23:27;;;;;;;9.40;3.95;;;1.40;99.90;;;;;;5037163;28;20052;-63
2024/01/27 04:25:54;;;;;;;12.63;3.38;;;1.40;99.90;;;;;;5036539;28;20420;-64
2024/01/27 04:28:21;;;;;;;12.93;3.40;;;1.40;99.90;;;;;;5036773;28;20103;-64
2024/01/27 04:30:47;;;;;;;13.93;2.83;;;1.30;99.90;;;;;;5036764;28;20073;-63
2024/01/27 04:33:14;;;;;;;11.95;3.10;;;1.30;99.90;;;;;;5036541;28;20048;-64
2024/01/27 04:35:41;;;;;;;10.55;2.58;;;1.30;99.90;;;;;;5035195;28;20045;-63
2024/01/27 04:38:08;;;;;;;13.77;4.03;;;1.30;99.90;;;;;;5036283;28;20060;-63
2024/01/27 04:40:35;;;;;;;12.43;3.35;;;1.30;99.90;;;;;;5036412;28;20546;-63
2024/01/27 04:43:02;;;;;;;14.82;3.38;;;1.20;99.90;;;;;;5036212;28;20096;-62
2024/01/27 04:45:29;;;;;;;11.60;3.15;;;1.20;99.90;;;;;;5036004;28;20234;-63
2024/01/27 04:47:56;;;;;;;12.82;3.47;;;1.20;99.90;;;;;;5035305;28;20046;-64
2024/01/27 04:50:23;;;;;;;10.85;3.30;;;1.20;99.90;;;;;;5036361;28;20390;-63
2024/01/27 04:52:50;;;;;;;9.02;3.13;;;1.10;99.90;;;;;;5036334;28;20398;-62
2024/01/27 04:55:17;;;;;;;11.02;3.35;;;1.10;99.90;;;;;;5036317;28;20046;-62
2024/01/27 04:57:43;;;;;;;8.73;2.50;;;1.10;99.90;;;;;;5036141;28;20072;-62
2024/01/27 05:00:12;;;;;;;10.88;3.05;;;1.10;99.90;;;;;;5036471;28;20051;-62
2024/01/27 05:02:39;;;;;;;9.70;2.60;;;1.10;99.90;;;;;;5035195;28;20053;-64
2024/01/27 05:05:06;;;;;;;8.30;2.92;;;1.10;99.90;;;;;;5036299;28;20052;-64
2024/01/27 05:07:32;;;;;;;14.32;3.88;;;1.10;99.90;;;;;;5035902;28;20045;-63
2024/01/27 05:09:59;;;;;;;13.32;3.10;;;1.10;99.90;;;;;;5036352;28;20046;-63
2024/01/27 05:12:26;;;;;;;13.15;3.33;;;1.10;99.90;;;;;;5036195;28;20041;-64
2024/01/27 05:14:53;;;;;;;12.68;4.00;;;1.00;99.90;;;;;;5035834;28;20430;-62
2024/01/27 05:17:20;;;;;;;10.48;3.03;;;1.00;99.90;;;;;;5036224;28;20072;-62
2024/01/27 05:19:47;;;;;;;12.15;3.38;;;1.00;99.90;;;;;;5035906;28;20044;-62
2024/01/27 05:22:14;;;;;;;11.07;3.22;;;1.00;99.90;;;;;;5034529;28;20049;-62
2024/01/27 05:24:40;;;;;;;11.18;2.90;;;1.00;99.90;;;;;;5035743;28;20045;-62
2024/01/27 05:27:07;;;;;;;11.60;3.15;;;1.00;99.90;;;;;;5035148;28;20048;-62
2024/01/27 05:29:34;;;;;;;13.25;2.95;;;1.00;99.90;;;;;;5035514;28;20053;-61
2024/01/27 05:32:01;;;;;;;10.00;2.55;;;0.90;99.90;;;;;;5035635;28;20037;-61
2024/01/27 05:34:28;;;;;;;11.75;3.03;;;0.90;99.90;;;;;;5035755;28;20044;-61
2024/01/27 05:36:55;;;;;;;7.95;2.75;;;0.90;99.90;;;;;;5035710;28;20183;-61
2024/01/27 05:39:21;;;;;;;7.63;2.33;;;0.90;99.90;;;;;;5035283;28;20053;-61
2024/01/27 05:41:48;;;;;;;10.23;3.13;;;0.80;99.90;;;;;;5035437;28;20384;-61
2024/01/27 05:44:15;;;;;;;8.98;2.70;;;0.90;99.90;;;;;;5035331;28;20045;-61
2024/01/27 05:46:42;;;;;;;8.45;2.90;;;0.80;99.90;;;;;;5035438;28;20037;-61
2024/01/27 05:49:09;;;;;;;9.73;2.97;;;0.80;99.90;;;;;;5035309;28;20152;-61
2024/01/27 05:51:36;;;;;;;9.27;2.65;;;0.80;99.90;;;;;;5034199;28;20046;-61
2024/01/27 05:54:03;;;;;;;8.93;2.85;;;0.70;99.90;;;;;;5034980;28;20463;-61
2024/01/27 05:56:31;;;;;;;10.38;2.67;;;0.70;99.90;;;;;;5035195;28;20442;-61
2024/01/27 05:58:58;;;;;;;8.02;2.35;;;0.70;99.90;;;;;;5034872;28;20076;-61
2024/01/27 06:01:25;;;;;;;7.68;2.58;;;0.70;99.90;;;;;;5034841;28;20045;-61
2024/01/27 06:03:52;;;;;;;8.77;2.33;;;0.70;99.90;;;;;;5034683;28;20041;-61
2024/01/27 06:06:19;;;;;;;13.48;3.25;;;0.70;99.90;;;;;;5034345;28;20489;-61
2024/01/27 06:08:46;;;;;;;11.00;2.78;;;0.70;99.90;;;;;;5034617;28;20065;-62
2024/01/27 06:11:12;;;;;;;9.10;2.58;;;0.70;99.90;;;;;;5034866;28;20123;-61
2024/01/27 06:13:40;;;;;;;6.95;2.65;;;0.70;99.90;;;;;;5034790;28;20090;-61
2024/01/27 06:16:08;;;;;;;8.45;2.60;;;0.70;99.90;;;;;;5034882;28;20041;-61
2024/01/27 06:18:36;;;;;;;8.25;2.63;;;0.60;99.90;;;;;;5034862;28;20124;-61
2024/01/27 06:21:03;;;;;;;8.07;2.47;;;0.60;99.90;;;;;;5034432;28;20051;-62
2024/01/27 06:23:30;;;;;;;12.30;3.17;;;0.60;99.90;;;;;;5034581;28;20049;-61
2024/01/27 06:25:57;;;;;;;9.90;2.58;;;0.60;99.90;;;;;;5034494;28;20037;-61
2024/01/27 06:28:23;;;;;;;13.63;2.50;;;0.60;99.90;;;;;;5034578;28;20044;-61
2024/01/27 06:30:50;;;;;;;7.18;2.42;;;0.60;99.90;;;;;;5034412;28;20052;-62
2024/01/27 06:33:17;;;;;;;12.93;3.17;;;0.70;99.90;;;;;;5034488;28;20141;-61
2024/01/27 06:35:44;;;;;;;10.98;2.90;;;0.70;99.90;;;;;;5034623;28;20370;-61
2024/01/27 06:38:11;;;;;;;10.52;3.70;;;0.70;99.90;;;;;;5033328;28;20042;-61
2024/01/27 06:40:38;;;;;;;12.80;3.22;;;0.70;99.90;;;;;;5033053;28;20050;-61
2024/01/27 06:43:05;;;;;;;12.05;3.45;;;0.70;99.90;;;;;;5034258;28;20128;-61
2024/01/27 06:45:31;;;;;;;10.88;3.15;;;0.70;99.90;;;;;;5034265;28;20045;-61
2024/01/27 06:47:58;;;;;;;11.00;3.33;;;0.70;99.90;;;;;;5034104;28;20049;-61
2024/01/27 06:50:25;;;;;;;14.00;3.55;;;0.60;99.90;;;;;;5034152;28;20034;-60
2024/01/27 06:52:52;;;;;;;8.57;2.65;;;0.60;99.90;;;;;;5034238;28;20041;-61
2024/01/27 06:55:19;;;;;;;12.55;3.50;;;0.50;99.90;;;;;;5033878;28;20049;-61
2024/01/27 06:57:46;;;;;;;10.07;3.40;;;0.60;99.90;;;;;;5034263;28;20116;-61
2024/01/27 07:00:14;;;;;;;7.50;2.95;;;0.60;99.90;;;;;;5034041;28;20371;-62
2024/01/27 07:02:42;;;;;;;7.63;3.22;;;0.50;99.90;;;;;;5034155;28;20421;-62
2024/01/27 07:05:09;;;;;;;8.25;2.95;;;0.60;99.90;;;;;;5033997;28;20045;-61
2024/01/27 07:07:36;;;;;;;7.97;3.15;;;0.60;99.90;;;;;;5033987;28;20055;-61
2024/01/27 07:10:03;;;;;;;10.23;3.10;;;0.60;99.90;;;;;;5033523;28;20042;-62
2024/01/27 07:12:29;;;;;;;17.05;3.63;;;0.60;99.90;;;;;;5033596;28;20320;-60
2024/01/27 07:14:57;;;;;;;8.00;2.85;;;0.60;99.90;;;;;;5033721;28;20455;-60
2024/01/27 07:17:24;;;;;;;11.27;2.85;;;0.60;99.90;;;;;;5032639;28;20049;-60
2024/01/27 07:19:50;;;;;;;13.63;3.30;;;0.60;99.90;;;;;;5033876;28;20498;-60
2024/01/27 07:22:17;;;;;;;12.98;3.20;;;0.60;99.90;;;;;;5032522;28;20056;-61
2024/01/27 07:24:44;;;;;;;8.65;3.05;;;0.70;99.90;;;;;;5032316;28;20049;-59
2024/01/27 07:27:11;;;;;;;10.15;2.47;;;0.70;99.90;;;;;;5033393;28;20041;-63
2024/01/27 07:29:38;;;;;;;7.90;2.83;;;0.80;99.90;;;;;;5033486;28;20053;-63
2024/01/27 07:32:07;;;;;;;14.23;3.05;;;0.90;99.90;;;;;;5033436;28;20029;-63
2024/01/27 07:34:34;;;;;;;8.60;2.75;;;0.90;99.90;;;;;;5033413;28;20050;-64
2024/01/27 07:37:01;;;;;;;12.50;2.72;;;1.00;99.90;;;;;;5033644;28;20041;-62
2024/01/27 07:39:28;;;;;;;13.90;2.90;;;1.00;99.90;;;;;;5033303;28;20069;-63
2024/01/27 07:41:54;;;;;;;11.35;2.83;;;1.00;99.90;;;;;;5032396;28;20376;-62
2024/01/27 07:44:21;;;;;;;13.20;2.97;;;1.00;99.90;;;;;;5033527;28;20049;-61
2024/01/27 07:46:48;;;;;;;7.95;2.60;;;1.10;99.90;;;;;;5033548;28;20482;-62
2024/01/27 07:49:15;;;;;;;10.38;3.00;;;1.10;99.90;;;;;;5033764;28;20422;-66
2024/01/27 07:51:42;;;;;;;10.20;3.35;;;1.10;99.90;;;;;;5035648;28;20120;-61
2024/01/27 07:54:09;;;;;;;15.27;3.17;;;1.10;99.90;;;;;;5036158;28;20053;-61
2024/01/27 07:56:36;;;;;;;8.90;2.70;;;1.10;99.90;;;;;;5037550;28;20467;-62
2024/01/27 07:59:03;;;;;;;15.15;3.35;;;1.10;99.90;;;;;;5036235;28;20079;-64
2024/01/27 08:01:30;;;;;;;11.25;2.80;;;1.10;99.90;;;;;;5037511;28;20049;-61
2024/01/27 08:03:57;;;;;;;16.27;2.42;;;1.30;99.90;;;;;;5037148;28;20045;-61
2024/01/27 08:06:24;;;;;;;12.90;2.15;;;1.50;99.90;;;;;;5035757;28;20099;-61
2024/01/27 08:08:51;;;;;;;14.95;2.80;;;1.60;99.90;;;;;;5036805;28;20057;-62
2024/01/27 08:11:18;;;;;;;12.65;2.42;;;1.60;99.90;;;;;;5037016;28;20133;-65
2024/01/27 08:13:44;;;;;;;13.60;2.83;;;1.70;99.90;;;;;;5036671;28;20148;-65
2024/01/27 08:16:12;;;;;;;11.52;2.30;;;1.70;99.90;;;;;;5037359;28;20049;-66
2024/01/27 08:18:39;;;;;;;16.20;2.92;;;1.80;99.90;;;;;;5035464;28;20045;-65
2024/01/27 08:21:06;;;;;;;15.38;2.75;;;2.00;99.90;;;;;;5037215;28;20473;-66
2024/01/27 08:23:33;;;;;;;18.73;2.95;;;2.20;99.90;;;;;;5036953;28;20041;-66
2024/01/27 08:26:00;;;;;;;14.88;2.47;;;2.30;99.90;;;;;;5035971;28;20095;-66
2024/01/27 08:28:27;;;;;;;11.18;1.90;;;2.40;99.90;;;;;;5036570;28;20125;-66
2024/01/27 08:30:53;;;;;;;15.43;2.97;;;2.60;99.90;;;;;;5036656;28;20045;-66
2024/01/27 08:33:20;;;;;;;13.25;2.13;;;2.70;99.90;;;;;;5036734;28;20046;-66
2024/01/27 08:35:51;;;;;;;13.20;2.67;;;2.90;99.90;;;;;;5036508;28;20490;-67
2024/01/27 08:38:18;;;;;;;12.48;2.42;;;3.00;99.90;;;;;;5036338;28;20045;-66
2024/01/27 08:40:45;;;;;;;12.75;2.88;;;3.20;99.90;;;;;;5036182;28;20049;-67
2024/01/27 08:43:12;;;;;;;17.13;3.08;;;3.20;99.90;;;;;;5036592;28;20039;-66
2024/01/27 08:45:39;;;;;;;13.23;3.38;;;3.30;99.90;;;;;;5036179;28;20052;-67
2024/01/27 08:48:06;;;;;;;12.60;2.45;;;3.40;99.90;;;;;;5034921;28;20050;-67
2024/01/27 08:50:34;;;;;;;16.35;2.92;;;3.40;99.90;;;;;;5036157;28;20061;-65
2024/01/27 08:53:01;;;;;;;13.20;2.35;;;3.50;99.90;;;;;;5035859;28;20044;-66
2024/01/27 08:55:28;;;;;;;10.98;2.85;;;3.50;99.90;;;;;;5035891;28;20402;-66
2024/01/27 08:57:55;;;;;;;12.57;2.30;;;3.50;99.90;;;;;;5035950;28;20505;-65
2024/01/27 09:00:22;;;;;;;13.25;2.38;;;3.50;99.90;;;;;;5034580;28;20088;-65
2024/01/27 09:02:48;;;;;;;9.20;2.47;;;3.60;99.90;;;;;;5016759;28;20049;-65
2024/01/27 09:05:15;;;;;;;17.25;2.65;;;3.60;99.90;;;;;;5035871;28;20045;-65
2024/01/27 09:07:42;;;;;;;12.20;3.08;;;3.70;99.90;;;;;;5036203;28;20041;-67
2024/01/27 09:10:12;;;;;;;12.98;2.63;;;3.80;99.90;;;;;;5036128;28;20041;-66
2024/01/27 09:12:39;;;;;;;9.55;2.75;;;4.00;99.90;;;;;;5036115;28;20053;-65
2024/01/27 09:15:07;;;;;;;11.88;2.50;;;4.10;99.90;;;;;;5035607;28;20068;-67
2024/01/27 09:17:34;;;;;;;10.27;2.28;;;4.20;99.90;;;;;;5035553;28;20041;-65
2024/01/27 09:20:01;;;;;;;11.73;2.83;;;4.30;99.90;;;;;;5035781;28;20141;-65
2024/01/27 09:22:28;;;;;;;12.98;2.42;;;4.40;99.90;;;;;;5036030;28;20474;-62
2024/01/27 09:24:55;;;;;;;8.13;2.20;;;4.60;99.90;;;;;;5035843;28;20049;-62
2024/01/27 09:27:22;;;;;;;15.48;3.28;;;4.70;99.90;;;;;;5035434;28;20045;-62
2024/01/27 09:29:48;;;;;;;13.57;3.10;;;4.70;99.90;;;;;;5035498;28;20132;-62
2024/01/27 09:32:15;;;;;;;11.95;2.55;;;4.80;99.90;;;;;;5035789;28;20041;-63
2024/01/27 09:34:42;;;;;;;14.48;2.78;;;4.90;99.90;;;;;;5035567;28;20033;-63
2024/01/27 09:37:09;;;;;;;12.32;2.40;;;5.00;99.90;;;;;;5034211;28;20049;-65
2024/01/27 09:39:36;;;;;;;12.93;2.60;;;5.00;99.90;;;;;;5035480;28;20124;-62
2024/01/27 09:42:03;;;;;;;10.48;2.10;;;5.10;99.90;;;;;;5035699;28;20095;-62
2024/01/27 09:44:30;;;;;;;10.15;2.60;;;5.20;99.90;;;;;;5034464;28;20479;-62
2024/01/27 09:46:56;;;;;;;17.63;2.83;;;5.20;99.90;;;;;;5034797;28;20505;-62
2024/01/27 09:49:23;;;;;;;12.25;2.38;;;5.30;99.90;;;;;;5038580;28;20087;-62
2024/01/27 09:51:50;;;;;;;10.98;2.70;;;5.30;99.90;;;;;;5039216;28;20060;-62
2024/01/27 09:54:19;;;;;;;12.80;2.50;;;5.40;99.90;;;;;;5035183;28;20467;-62
2024/01/27 09:56:46;;;;;;;12.82;2.67;;;5.40;99.90;;;;;;5035190;28;20499;-64
2024/01/27 09:59:15;;;;;;;13.30;2.53;;;5.40;99.90;;;;;;5033803;28;20049;-64
2024/01/27 10:01:42;;;;;;;11.40;2.83;;;5.50;99.90;;;;;;5035152;28;20442;-65
2024/01/27 10:04:09;;;;;;;13.95;2.47;;;5.50;99.90;;;;;;5035166;28;20049;-67
2024/01/27 10:06:36;;;;;;;9.43;2.03;;;5.60;99.90;;;;;;5033992;28;20049;-65
2024/01/27 10:09:03;;;;;;;9.77;2.17;;;5.60;99.90;;;;;;5034920;28;20095;-65
2024/01/27 10:11:30;;;;;;;9.95;2.47;;;5.70;99.90;;;;;;5035175;28;20060;-64
2024/01/27 10:13:57;;;;;;;10.30;2.67;;;5.70;99.90;;;;;;5034510;28;20364;-62
2024/01/27 10:16:25;;;;;;;11.98;2.88;;;5.80;99.90;;;;;;5035264;28;20425;-62
2024/01/27 10:18:52;;;;;;;11.18;1.95;;;5.80;99.90;;;;;;5035173;28;20414;-62
2024/01/27 10:21:20;;;;;;;14.50;2.22;;;5.90;99.90;;;;;;5034794;28;20046;-61
2024/01/27 10:23:47;;;;;;;15.57;2.55;;;5.90;99.90;;;;;;5034571;28;20048;-64
2024/01/27 10:26:14;;;;;;;13.00;2.50;;;6.00;99.90;;;;;;5033107;28;20487;-66
2024/01/27 10:28:42;;;;;;;11.77;2.63;;;6.10;99.90;;;;;;5035069;28;20053;-64
2024/01/27 10:31:09;;;;;;;8.93;2.33;;;6.10;99.90;;;;;;5033469;28;20483;-65
2024/01/27 10:33:36;;;;;;;9.85;2.50;;;6.20;99.90;;;;;;5033348;28;20112;-65
2024/01/27 10:36:02;;;;;;;12.23;2.15;;;6.20;99.90;;;;;;5034602;28;20038;-67
2024/01/27 10:38:29;;;;;;;10.82;2.50;;;6.30;99.90;;;;;;5033953;28;20053;-67
2024/01/27 10:40:56;;;;;;;7.75;1.92;;;6.30;99.90;;;;;;5034250;28;20504;-66
2024/01/27 10:43:23;;;;;;;10.40;2.20;;;6.40;99.90;;;;;;5034047;28;20045;-66
2024/01/27 10:45:50;;;;;;;9.55;2.25;;;6.50;99.90;;;;;;5034113;28;20509;-66
2024/01/27 10:48:16;;;;;;;12.77;2.63;;;6.60;99.90;;;;;;5033767;28;20041;-66
2024/01/27 10:50:43;;;;;;;12.30;2.70;;;6.70;99.90;;;;;;5033789;28;20112;-65
2024/01/27 10:53:11;;;;;;;10.35;2.35;;;6.80;99.90;;;;;;5032878;28;20467;-66
2024/01/27 10:55:38;;;;;;;11.88;2.25;;;6.90;99.90;;;;;;5034159;28;20091;-65
2024/01/27 10:58:05;;;;;;;8.93;2.05;;;6.90;99.90;;;;;;5033837;28;20056;-66
2024/01/27 11:00:32;;;;;;;10.85;2.00;;;7.00;99.90;;;;;;5033623;28;20045;-66
2024/01/27 11:02:59;;;;;;;12.40;2.30;;;7.10;99.90;;;;;;5034042;28;20475;-65
2024/01/27 11:05:26;;;;;;;11.25;2.20;;;7.20;99.90;;;;;;5033957;28;20047;-65
2024/01/27 11:07:52;;;;;;;9.60;1.85;;;7.30;99.90;;;;;;5032101;28;20132;-64
2024/01/27 11:10:19;;;;;;;11.02;2.30;;;7.30;99.90;;;;;;5034216;28;20095;-65
2024/01/27 11:12:46;;;;;;;9.90;1.92;;;7.40;99.90;;;;;;5032604;28;20111;-66
2024/01/27 11:15:13;;;;;;;9.57;2.20;;;7.50;99.90;;;;;;5033432;28;20080;-65
2024/01/27 11:17:41;;;;;;;10.13;1.88;;;7.50;99.90;;;;;;5033594;28;20514;-65
2024/01/27 11:20:07;;;;;;;12.43;2.10;;;7.60;99.90;;;;;;5033736;28;20538;-64
2024/01/27 11:22:34;;;;;;;10.48;2.40;;;7.70;99.90;;;;;;5032823;28;20437;-65
2024/01/27 11:25:01;;;;;;;11.20;2.72;;;7.70;99.90;;;;;;5033036;28;20041;-65
2024/01/27 11:27:29;;;;;;;9.70;2.20;;;7.70;99.90;;;;;;5031925;28;20064;-65
2024/01/27 11:29:56;;;;;;;11.90;2.72;;;7.80;99.90;;;;;;5032779;28;20096;-65
2024/01/27 11:32:23;;;;;;;12.23;2.25;;;7.80;99.90;;;;;;5033551;28;20033;-65
2024/01/27 11:34:50;;;;;;;14.93;2.83;;;7.80;99.90;;;;;;5032592;28;20394;-64
2024/01/27 11:37:19;;;;;;;12.77;3.22;;;7.80;99.90;;;;;;5033340;28;20041;-64
2024/01/27 11:39:46;;;;;;;12.95;2.83;;;7.90;99.90;;;;;;5032388;28;20534;-65
2024/01/27 11:42:13;;;;;;;11.20;3.05;;;7.90;99.90;;;;;;5033785;28;20053;-65
2024/01/27 11:44:40;;;;;;;9.73;2.70;;;7.90;99.90;;;;;;5033453;28;20050;-64
2024/01/27 11:47:07;;;;;;;11.95;2.97;;;7.90;99.90;;;;;;5048394;28;20044;-62
2024/01/27 11:49:34;;;;;;;14.00;2.85;;;7.90;99.90;;;;;;5053361;28;20045;-59
2024/01/27 11:52:01;;;;;;;12.50;2.95;;;7.90;99.90;;;;;;5045062;28;20421;-61
2024/01/27 11:54:28;;;;;;;12.57;2.80;;;8.00;99.90;;;;;;5032864;28;20487;-60
2024/01/27 11:56:55;;;;;;;16.33;3.80;;;8.00;99.90;;;;;;5032223;28;20356;-62
2024/01/27 11:59:22;;;;;;;11.98;3.50;;;8.10;99.90;;;;;;5033142;28;20045;-64
2024/01/27 12:01:49;;;;;;;18.40;4.30;;;8.10;99.90;;;;;;5031181;28;20045;-62
2024/01/27 12:04:16;;;;;;;15.35;5.32;;;8.10;99.90;;;;;;5033054;28;20049;-63
2024/01/27 12:06:43;;;;;;;18.17;3.90;;;8.20;99.90;;;;;;5033635;28;20429;-63
2024/01/27 12:09:13;;;;;;;12.27;4.13;;;8.20;99.90;;;;;;5031468;28;20069;-63
2024/01/27 12:11:41;;;;;;;15.25;4.18;;;8.30;99.90;;;;;;5033307;28;20041;-62
2024/01/27 12:14:07;;;;;;;19.50;4.53;;;8.30;99.90;;;;;;5031270;28;20053;-63
2024/01/27 12:16:34;;;;;;;17.17;4.40;;;8.30;99.90;;;;;;5032264;28;20363;-63
2024/01/27 12:19:02;;;;;;;23.35;8.48;;;8.40;99.90;;;;;;5033090;28;20037;-63
2024/01/27 12:21:29;;;;;;;26.75;12.38;;;8.40;99.90;;;;;;5032075;28;20052;-63
2024/01/27 12:23:56;;;;;;;20.52;4.78;;;8.40;99.90;;;;;;5032935;28;20041;-63
2024/01/27 12:26:23;;;;;;;14.90;3.95;;;8.40;99.90;;;;;;5032472;28;20136;-62
2024/01/27 12:28:50;;;;;;;16.25;3.30;;;8.40;99.90;;;;;;5032588;28;20402;-62
2024/01/27 12:31:17;;;;;;;18.13;3.40;;;8.40;99.90;;;;;;5032303;28;20470;-62
2024/01/27 12:33:47;;;;;;;16.20;3.33;;;8.40;99.90;;;;;;5031213;28;20133;-61
2024/01/27 12:36:14;;;;;;;12.27;2.97;;;8.40;99.90;;;;;;5032139;28;20042;-63
2024/01/27 12:38:41;;;;;;;20.50;6.10;;;8.30;99.90;;;;;;5035030;28;20048;-62
2024/01/27 12:41:07;;;;;;;19.17;5.05;;;8.30;99.90;;;;;;5035240;28;20076;-66
2024/01/27 12:43:34;;;;;;;13.65;3.90;;;8.30;99.90;;;;;;5035667;28;20390;-62
2024/01/27 12:46:01;;;;;;;20.00;4.15;;;8.30;99.90;;;;;;5036777;28;20041;-62